Time;durP1;ratioP1;P1;durP2;ratioP2;P2;SDS_P1;SDS_P2;PMS_P1;PMS_P2;Temp;Humidity;BMP_temperature;BMP_pressure;BME280_temperature;BME280_humidity;BME280_pressure;Samples;Min_cycle;Max_cycle;Signal;HPM_P1;HPM_P2
2022/03/14 00:00:36;;;;;;;;;;;10.40;99.90;;;;;;5052362;28;19932;-78
2022/03/14 00:03:04;;;;;;;;;;;10.40;99.90;;;;;;5052392;28;19972;-78
2022/03/14 00:05:31;;;;;;;;;;;10.40;99.90;;;;;;5052562;28;20335;-78
2022/03/14 00:08:01;;;;;;;;;;;10.40;99.90;;;;;;5052782;28;19928;-78
2022/03/14 00:10:29;;;;;;;;;;;10.40;99.90;;;;;;5051971;28;19925;-77
2022/03/14 00:12:58;;;;;;;;;;;10.40;99.90;;;;;;5052223;28;19925;-78
2022/03/14 00:15:33;;;;;;;;;;;10.40;99.90;;;;;;5052229;28;20023;-78
2022/03/14 00:18:01;;;;;;;;;;;10.40;99.90;;;;;;5052170;28;19925;-77
2022/03/14 00:20:28;;;;;;;;;;;10.40;99.90;;;;;;5051887;28;19943;-78
2022/03/14 00:22:58;;;;;;;;;;;10.40;99.90;;;;;;5052001;28;19931;-77
2022/03/14 00:25:26;;;;;;;;;;;10.40;99.90;;;;;;5052083;28;20380;-78
2022/03/14 00:27:54;;;;;;;;;;;10.40;99.90;;;;;;5052033;28;19925;-77
2022/03/14 00:30:23;;;;;;;;;;;10.40;99.90;;;;;;5051763;28;19931;-78
2022/03/14 00:32:49;;;;;;;;;;;10.40;99.90;;;;;;5051973;28;19924;-77
2022/03/14 00:35:16;;;;;;;;;;;10.40;99.90;;;;;;5051737;28;19925;-78
2022/03/14 00:37:43;;;;;;;;;;;10.40;99.90;;;;;;5051615;28;20012;-77
2022/03/14 00:40:11;;;;;;;;;;;10.40;99.90;;;;;;5051638;28;19924;-78
2022/03/14 00:42:38;;;;;;;;;;;10.40;99.90;;;;;;5068386;28;19932;-77
2022/03/14 00:45:05;;;;;;;;;;;10.40;99.90;;;;;;5051931;28;19925;-77
2022/03/14 00:47:34;;;;;;;;;;;10.40;99.90;;;;;;5051899;28;19987;-77
2022/03/14 00:50:00;;;;;;;;;;;10.40;99.90;;;;;;5050934;28;20372;-77
2022/03/14 00:52:27;;;;;;;;;;;10.40;99.90;;;;;;5051290;28;20342;-78
2022/03/14 00:54:54;;;;;;;;;;;10.40;99.90;;;;;;5051217;28;19925;-77
2022/03/14 00:57:21;;;;;;;;;;;10.30;99.90;;;;;;5051134;28;19990;-77
2022/03/14 00:59:48;;;;;;;;;;;10.30;99.90;;;;;;5050908;28;19924;-77
2022/03/14 01:02:15;;;;;;;;;;;10.30;99.90;;;;;;5051147;28;19928;-76
2022/03/14 01:04:43;;;;;;;;;;;10.30;99.90;;;;;;5049273;28;20301;-76
2022/03/14 01:07:10;;;;;;;;;;;10.30;99.90;;;;;;5051037;28;19924;-75
2022/03/14 01:09:37;;;;;;;;;;;10.30;99.90;;;;;;5050708;28;19924;-76
2022/03/14 01:12:04;;;;;;;;;;;10.30;99.90;;;;;;5051052;28;19929;-75
2022/03/14 01:14:30;;;;;;;;;;;10.30;99.90;;;;;;5051104;28;19925;-75
2022/03/14 01:16:57;;;;;;;;;;;10.20;99.90;;;;;;5051348;28;19929;-76
2022/03/14 01:19:24;;;;;;;;;;;10.30;99.90;;;;;;5050766;28;19925;-76
2022/03/14 01:21:52;;;;;;;;;;;10.20;99.90;;;;;;5068197;28;20478;-75
2022/03/14 01:24:19;;;;;;;;;;;10.20;99.90;;;;;;5051053;28;19929;-76
2022/03/14 01:26:46;;;;;;;;;;;10.20;99.90;;;;;;5051171;28;19987;-76
2022/03/14 01:29:14;;;;;;;;;;;10.20;99.90;;;;;;5050712;28;20350;-76
2022/03/14 01:31:41;;;;;;;;;;;10.20;99.90;;;;;;5050684;28;19925;-75
2022/03/14 01:34:08;;;;;;;;;;;10.20;99.90;;;;;;5050919;28;20404;-76
2022/03/14 01:36:35;;;;;;;;;;;10.20;99.90;;;;;;5051237;28;19924;-75
2022/03/14 01:39:04;;;;;;;;;;;10.20;99.90;;;;;;5050631;28;19971;-76
2022/03/14 01:41:31;;;;;;;;;;;10.30;99.90;;;;;;5050674;28;20354;-75
2022/03/14 01:44:00;;;;;;;;;;;10.20;99.90;;;;;;5051199;28;20307;-75
2022/03/14 01:46:27;;;;;;;;;;;10.20;99.90;;;;;;5050705;28;19975;-75
2022/03/14 01:48:55;;;;;;;;;;;10.20;99.90;;;;;;5050638;28;20307;-76
2022/03/14 01:51:25;;;;;;;;;;;10.20;99.90;;;;;;5050824;28;19925;-75
2022/03/14 01:53:53;;;;;;;;;;;10.20;99.90;;;;;;5050968;28;19924;-75
2022/03/14 01:56:21;;;;;;;;;;;10.20;99.90;;;;;;5050991;28;19925;-76
2022/03/14 01:58:48;;;;;;;;;;;10.20;99.90;;;;;;5050432;28;20347;-75
2022/03/14 02:01:15;;;;;;;;;;;10.20;99.90;;;;;;5050792;28;20438;-76
2022/03/14 02:03:42;;;;;;;;;;;10.20;99.90;;;;;;5050747;28;19929;-75
2022/03/14 02:06:09;;;;;;;;;;;10.20;99.90;;;;;;5050672;28;19961;-76
2022/03/14 02:08:36;;;;;;;;;;;10.10;99.90;;;;;;5050489;28;19971;-76
2022/03/14 02:11:03;;;;;;;;;;;10.10;99.90;;;;;;5050300;28;19929;-76
2022/03/14 02:13:31;;;;;;;;;;;10.20;99.90;;;;;;5053542;28;19924;-75
2022/03/14 02:15:58;;;;;;;;;;;10.10;99.90;;;;;;5054690;28;19925;-76
2022/03/14 02:18:25;;;;;;;;;;;10.10;99.90;;;;;;5054464;28;20354;-73
2022/03/14 02:20:53;;;;;;;;;;;10.00;99.90;;;;;;5053543;28;19932;-75
2022/03/14 02:23:20;;;;;;;;;;;9.90;99.90;;;;;;5054254;28;19925;-76
2022/03/14 02:25:47;;;;;;;;;;;9.90;99.90;;;;;;5054085;28;19928;-75
2022/03/14 02:28:15;;;;;;;;;;;9.90;99.90;;;;;;5054558;28;19951;-76
2022/03/14 02:30:42;;;;;;;;;;;9.80;99.90;;;;;;5054088;28;20023;-75
2022/03/14 02:33:09;;;;;;;;;;;9.80;99.90;;;;;;5054456;28;20023;-75
2022/03/14 02:35:39;;;;;;;;;;;9.80;99.90;;;;;;5054097;28;19971;-75
2022/03/14 02:38:14;;;;;;;;;;;9.80;99.90;;;;;;5054262;28;19932;-76
2022/03/14 02:40:41;;;;;;;;;;;9.70;99.90;;;;;;5053555;28;19956;-75
2022/03/14 02:43:08;;;;;;;;;;;9.70;99.90;;;;;;5055173;28;19924;-76
2022/03/14 02:45:35;;;;;;;;;;;9.70;99.90;;;;;;5074004;28;19924;-75
2022/03/14 02:48:01;;;;;;;;;;;9.70;99.90;;;;;;5056691;28;19968;-75
2022/03/14 02:50:29;;;;;;;;;;;9.70;99.90;;;;;;5053568;28;19948;-75
2022/03/14 02:52:57;;;;;;;;;;;9.60;99.90;;;;;;5053834;28;19956;-75
2022/03/14 02:55:25;;;;;;;;;;;9.60;99.90;;;;;;5053899;28;19957;-75
2022/03/14 02:57:52;;;;;;;;;;;9.60;99.90;;;;;;5053844;28;20338;-75
2022/03/14 03:00:19;;;;;;;;;;;9.60;99.90;;;;;;5053345;28;19925;-75
2022/03/14 03:02:46;;;;;;;;;;;9.60;99.90;;;;;;5053464;28;19978;-75
2022/03/14 03:05:12;;;;;;;;;;;9.50;99.90;;;;;;5053799;28;19929;-76
2022/03/14 03:07:39;;;;;;;;;;;9.60;99.90;;;;;;5053720;28;20024;-75
2022/03/14 03:10:07;;;;;;;;;;;9.60;99.90;;;;;;5052981;28;19924;-75
2022/03/14 03:12:37;;;;;;;;;;;9.60;99.90;;;;;;5053296;28;19924;-75
2022/03/14 03:15:04;;;;;;;;;;;9.60;99.90;;;;;;5053500;28;19929;-75
2022/03/14 03:17:31;;;;;;;;;;;9.50;99.90;;;;;;5053528;28;20349;-75
2022/03/14 03:19:58;;;;;;;;;;;9.50;99.90;;;;;;5052806;28;19967;-76
2022/03/14 03:22:26;;;;;;;;;;;9.50;99.90;;;;;;5053132;28;19982;-75
2022/03/14 03:24:53;;;;;;;;;;;9.50;99.90;;;;;;5052579;28;19925;-75
2022/03/14 03:27:20;;;;;;;;;;;9.50;99.90;;;;;;5053269;28;20358;-75
2022/03/14 03:29:48;;;;;;;;;;;9.50;99.90;;;;;;5052925;28;19925;-76
2022/03/14 03:32:15;;;;;;;;;;;9.50;99.90;;;;;;5053100;28;19936;-76
2022/03/14 03:34:42;;;;;;;;;;;9.40;99.90;;;;;;5053374;28;19928;-75
2022/03/14 03:37:08;;;;;;;;;;;9.40;99.90;;;;;;5053186;28;19925;-75
2022/03/14 03:39:35;;;;;;;;;;;9.40;99.90;;;;;;5069324;28;19929;-76
2022/03/14 03:42:02;;;;;;;;;;;9.40;99.90;;;;;;5053138;28;19929;-75
2022/03/14 03:44:31;;;;;;;;;;;9.40;99.90;;;;;;5053057;28;19924;-76
2022/03/14 03:47:00;;;;;;;;;;;9.30;99.90;;;;;;5055172;28;19961;-75
2022/03/14 03:49:27;;;;;;;;;;;9.40;99.90;;;;;;5052278;28;20300;-75
2022/03/14 03:51:54;;;;;;;;;;;9.30;99.90;;;;;;5052776;28;19925;-75
2022/03/14 03:54:21;;;;;;;;;;;9.30;99.90;;;;;;5052695;28;19925;-75
2022/03/14 03:56:48;;;;;;;;;;;9.30;99.90;;;;;;5052469;28;19924;-75
2022/03/14 03:59:15;;;;;;;;;;;9.30;99.90;;;;;;5052123;28;19932;-76
2022/03/14 04:01:43;;;;;;;;;;;9.30;99.90;;;;;;5052609;28;19979;-75
2022/03/14 04:04:11;;;;;;;;;;;9.30;99.90;;;;;;5052397;28;19925;-74
2022/03/14 04:06:39;;;;;;;;;;;9.30;99.90;;;;;;5052650;28;19925;-75
2022/03/14 04:09:07;;;;;;;;;;;9.30;99.90;;;;;;5051850;28;19925;-76
2022/03/14 04:11:34;;;;;;;;;;;9.30;99.90;;;;;;5052147;28;20422;-75
2022/03/14 04:14:01;;;;;;;;;;;9.30;99.90;;;;;;5052213;28;20031;-75
2022/03/14 04:16:28;;;;;;;;;;;9.20;99.90;;;;;;5052507;28;20011;-75
2022/03/14 04:18:58;;;;;;;;;;;9.20;99.90;;;;;;5051691;28;19928;-75
2022/03/14 04:21:27;;;;;;;;;;;9.20;99.90;;;;;;5052052;28;19928;-74
2022/03/14 04:23:56;;;;;;;;;;;9.20;99.90;;;;;;5052104;28;19925;-76
2022/03/14 04:26:23;;;;;;;;;;;9.20;99.90;;;;;;5052192;28;19925;-75
2022/03/14 04:28:50;;;;;;;;;;;9.10;99.90;;;;;;5068291;28;20387;-75
2022/03/14 04:31:17;;;;;;;;;;;9.10;99.90;;;;;;5051753;28;20391;-76
2022/03/14 04:33:43;;;;;;;;;;;9.10;99.90;;;;;;5051968;28;20380;-75
2022/03/14 04:36:14;;;;;;;;;;;9.10;99.90;;;;;;5068390;28;19975;-75
2022/03/14 04:38:42;;;;;;;;;;;9.10;99.90;;;;;;5051926;28;19931;-74
2022/03/14 04:41:09;;;;;;;;;;;9.10;99.90;;;;;;5051458;28;19928;-75
2022/03/14 04:43:35;;;;;;;;;;;9.00;99.90;;;;;;5051554;28;20015;-75
2022/03/14 04:46:02;;;;;;;;;;;9.00;99.90;;;;;;5051731;28;19947;-75
2022/03/14 04:48:29;;;;;;;;;;;9.00;99.90;;;;;;5051983;28;19924;-76
2022/03/14 04:50:56;;;;;;;;;;;8.90;99.90;;;;;;5051144;28;19928;-75
2022/03/14 04:53:23;;;;;;;;;;;8.90;99.90;;;;;;5051675;28;19932;-74
2022/03/14 04:55:51;;;;;;;;;;;8.90;99.90;;;;;;5051762;28;19924;-75
2022/03/14 04:58:18;;;;;;;;;;;9.00;99.90;;;;;;5051659;28;19929;-75
2022/03/14 05:00:45;;;;;;;;;;;8.90;99.90;;;;;;5051270;28;19948;-74
2022/03/14 05:03:14;;;;;;;;;;;8.90;99.90;;;;;;5051365;28;20011;-75
2022/03/14 05:05:41;;;;;;;;;;;8.90;99.90;;;;;;5051646;28;19935;-75
2022/03/14 05:08:08;;;;;;;;;;;8.80;99.90;;;;;;5051425;28;20396;-75
2022/03/14 05:10:35;;;;;;;;;;;8.80;99.90;;;;;;5050674;28;19987;-75
2022/03/14 05:13:03;;;;;;;;;;;8.80;99.90;;;;;;5050878;28;19925;-74
2022/03/14 05:15:31;;;;;;;;;;;8.80;99.90;;;;;;5051362;28;19992;-75
2022/03/14 05:18:02;;;;;;;;;;;8.80;99.90;;;;;;5051158;28;19929;-77
2022/03/14 05:20:28;;;;;;;;;;;8.80;99.90;;;;;;5050508;28;20469;-75
2022/03/14 05:22:55;;;;;;;;;;;8.80;99.90;;;;;;5051154;28;19924;-75
2022/03/14 05:25:23;;;;;;;;;;;8.90;99.90;;;;;;5051240;28;19932;-75
2022/03/14 05:27:52;;;;;;;;;;;8.80;99.90;;;;;;5051087;28;19978;-75
2022/03/14 05:30:20;;;;;;;;;;;8.90;99.90;;;;;;5050808;28;20379;-76
2022/03/14 05:32:47;;;;;;;;;;;8.90;99.90;;;;;;5051193;28;19964;-76
2022/03/14 05:35:15;;;;;;;;;;;8.90;99.90;;;;;;5051025;28;19924;-75
2022/03/14 05:37:42;;;;;;;;;;;8.90;99.90;;;;;;5050915;28;19947;-76
2022/03/14 05:40:11;;;;;;;;;;;8.90;99.90;;;;;;5067336;28;19933;-74
2022/03/14 05:42:39;;;;;;;;;;;8.90;99.90;;;;;;5051146;28;20307;-77
2022/03/14 05:45:07;;;;;;;;;;;8.90;99.90;;;;;;5051322;28;19932;-77
2022/03/14 05:47:36;;;;;;;;;;;8.90;99.90;;;;;;5050489;28;19960;-77
2022/03/14 05:50:03;;;;;;;;;;;8.90;99.90;;;;;;5050363;28;19925;-77
2022/03/14 05:52:30;;;;;;;;;;;8.80;99.90;;;;;;5050678;28;20392;-77
2022/03/14 05:54:57;;;;;;;;;;;8.90;99.90;;;;;;5050999;28;19928;-76
2022/03/14 05:57:23;;;;;;;;;;;8.90;99.90;;;;;;5051424;28;19925;-77
2022/03/14 05:59:50;;;;;;;;;;;8.80;99.90;;;;;;5050272;28;19925;-77
2022/03/14 06:02:19;;;;;;;;;;;8.80;99.90;;;;;;5055904;28;19929;-77
2022/03/14 06:04:47;;;;;;;;;;;8.80;99.90;;;;;;5070966;28;19970;-77
2022/03/14 06:07:14;;;;;;;;;;;8.80;99.90;;;;;;5070620;28;19924;-77
2022/03/14 06:09:41;;;;;;;;;;;8.80;99.90;;;;;;5071776;28;20384;-78
2022/03/14 06:12:09;;;;;;;;;;;8.80;99.90;;;;;;5073704;28;19928;-76
2022/03/14 06:14:36;;;;;;;;;;;8.70;99.90;;;;;;5071022;28;19964;-76
2022/03/14 06:17:03;;;;;;;;;;;8.70;99.90;;;;;;5070760;28;19944;-75
2022/03/14 06:19:30;;;;;;;;;;;8.70;99.90;;;;;;5070402;28;19924;-74
2022/03/14 06:21:58;;;;;;;;;;;8.70;99.90;;;;;;5070468;28;19928;-75
2022/03/14 06:24:24;;;;;;;;;;;8.70;99.90;;;;;;5070342;28;19994;-76
2022/03/14 06:26:51;;;;;;;;;;;8.70;99.90;;;;;;5070685;28;19925;-75
2022/03/14 06:29:19;;;;;;;;;;;8.70;99.90;;;;;;5069821;28;19932;-76
2022/03/14 06:31:47;;;;;;;;;;;8.60;99.90;;;;;;5070626;28;19925;-77
2022/03/14 06:34:15;;;;;;;;;;;8.60;99.90;;;;;;5070373;28;20291;-76
2022/03/14 06:36:44;;;;;;;;;;;8.60;99.90;;;;;;5070618;28;19924;-76
2022/03/14 06:39:12;;;;;;;;;;;8.60;99.90;;;;;;5069849;28;19924;-77
2022/03/14 06:41:39;;;;;;;;;;;8.60;99.90;;;;;;5065936;28;19929;-76
2022/03/14 06:44:06;;;;;;;;;;;8.60;99.90;;;;;;5065175;28;20058;-74
2022/03/14 06:46:33;;;;;;;;;;;8.60;99.90;;;;;;5066050;28;19924;-78
2022/03/14 06:48:59;;;;;;;;;;;8.60;99.90;;;;;;5056928;28;19925;-78
2022/03/14 06:51:26;;;;;;;;;;;8.60;99.90;;;;;;5051363;28;19932;-78
2022/03/14 06:53:53;;;;;;;;;;;8.70;99.90;;;;;;5049731;28;20012;-80
2022/03/14 06:56:22;;;;;;;;;;;8.70;99.90;;;;;;5066516;28;20347;-75
2022/03/14 06:58:48;;;;;;;;;;;8.70;99.90;;;;;;5053802;28;20147;-75
2022/03/14 07:01:15;;;;;;;;;;;8.70;99.90;;;;;;5055550;28;19928;-77
2022/03/14 07:03:42;;;;;;;;;;;8.70;99.90;;;;;;5055551;28;19924;-75
2022/03/14 07:06:09;;;;;;;;;;;8.70;99.90;;;;;;5064789;28;20341;-75
2022/03/14 07:08:36;;;;;;;;;;;8.70;99.90;;;;;;5072843;28;19946;-76
2022/03/14 07:11:02;;;;;;;;;;;8.80;99.90;;;;;;5063602;28;19932;-76
2022/03/14 07:13:31;;;;;;;;;;;8.80;99.90;;;;;;5052404;28;19925;-76
2022/03/14 07:15:58;;;;;;;;;;;8.80;99.90;;;;;;5052670;28;19932;-76
2022/03/14 07:18:24;;;;;;;;;;;8.80;99.90;;;;;;5052323;28;19950;-77
2022/03/14 07:20:51;;;;;;;;;;;8.90;99.90;;;;;;5051945;28;19932;-76
2022/03/14 07:23:18;;;;;;;;;;;8.90;99.90;;;;;;5069044;28;19929;-76
2022/03/14 07:25:45;;;;;;;;;;;8.90;99.90;;;;;;5052686;28;19939;-75
2022/03/14 07:28:12;;;;;;;;;;;9.00;99.90;;;;;;5052308;28;19928;-77
2022/03/14 07:30:41;;;;;;;;;;;9.00;99.90;;;;;;5068576;28;19928;-77
2022/03/14 07:33:08;;;;;;;;;;;9.00;99.90;;;;;;5069100;28;19956;-77
2022/03/14 07:35:35;;;;;;;;;;;9.10;99.90;;;;;;5068786;28;19928;-77
2022/03/14 07:38:03;;;;;;;;;;;9.10;99.90;;;;;;5052415;28;19925;-76
2022/03/14 07:40:30;;;;;;;;;;;9.20;99.90;;;;;;5068773;28;19925;-77
2022/03/14 07:42:58;;;;;;;;;;;9.20;99.90;;;;;;5052455;28;19928;-77
2022/03/14 07:45:31;;;;;;;;;;;9.10;99.90;;;;;;5069262;28;19924;-76
2022/03/14 07:47:59;;;;;;;;;;;9.20;99.90;;;;;;5052115;28;19925;-74
2022/03/14 07:50:27;;;;;;;;;;;9.20;99.90;;;;;;5052772;28;19925;-76
2022/03/14 07:52:55;;;;;;;;;;;9.20;99.90;;;;;;5060698;28;19925;-77
2022/03/14 07:55:23;;;;;;;;;;;9.20;99.90;;;;;;5063303;28;20367;-76
2022/03/14 07:57:49;;;;;;;;;;;9.30;99.90;;;;;;5068521;28;19932;-76
2022/03/14 08:00:18;;;;;;;;;;;9.30;99.90;;;;;;5068539;28;19931;-76
2022/03/14 08:02:47;;;;;;;;;;;9.40;99.90;;;;;;5071614;28;20016;-76
2022/03/14 08:05:16;;;;;;;;;;;9.40;99.90;;;;;;5071033;28;19925;-76
2022/03/14 08:07:47;;;;;;;;;;;9.40;99.90;;;;;;5076412;28;19936;-77
2022/03/14 08:10:16;;;;;;;;;;;9.40;99.90;;;;;;5068703;28;19928;-75
2022/03/14 08:12:49;;;;;;;;;;;9.50;99.90;;;;;;5051331;28;20028;-76
2022/03/14 08:15:20;;;;;;;;;;;9.50;99.90;;;;;;5051422;28;19936;-77
2022/03/14 08:17:46;;;;;;;;;;;9.50;99.90;;;;;;5063989;28;19924;-76
2022/03/14 08:20:15;;;;;;;;;;;9.60;99.90;;;;;;5060358;28;19928;-76
2022/03/14 08:22:42;;;;;;;;;;;9.60;99.90;;;;;;5084034;28;19932;-77
2022/03/14 08:25:09;;;;;;;;;;;9.70;99.90;;;;;;5066970;28;20299;-76
2022/03/14 08:27:36;;;;;;;;;;;9.70;99.90;;;;;;5069966;28;19932;-76
2022/03/14 08:30:03;;;;;;;;;;;9.70;99.90;;;;;;5066837;28;19928;-76
2022/03/14 08:32:30;;;;;;;;;;;9.70;99.90;;;;;;5066819;28;19932;-77
2022/03/14 08:34:57;;;;;;;;;;;9.70;99.90;;;;;;5069647;28;19932;-77
2022/03/14 08:37:26;;;;;;;;;;;9.70;99.90;;;;;;5083852;28;19925;-76
2022/03/14 08:39:53;;;;;;;;;;;9.70;99.90;;;;;;5064835;28;19925;-76
2022/03/14 08:42:20;;;;;;;;;;;9.80;99.90;;;;;;5053303;28;19935;-77
2022/03/14 08:44:47;;;;;;;;;;;9.80;99.90;;;;;;5057609;28;19924;-76
2022/03/14 08:47:14;;;;;;;;;;;9.70;99.90;;;;;;5070161;28;20305;-75
2022/03/14 08:49:40;;;;;;;;;;;9.80;99.90;;;;;;5059680;28;19931;-76
2022/03/14 08:52:07;;;;;;;;;;;9.80;99.90;;;;;;5053103;28;19924;-76
2022/03/14 08:54:35;;;;;;;;;;;9.90;99.90;;;;;;5050311;28;19925;-77
2022/03/14 08:57:02;;;;;;;;;;;9.90;99.90;;;;;;5065276;28;19929;-75
2022/03/14 08:59:29;;;;;;;;;;;10.00;99.90;;;;;;5074511;28;19925;-75
2022/03/14 09:01:56;;;;;;;;;;;10.00;99.90;;;;;;5066876;28;19925;-75
2022/03/14 09:04:22;;;;;;;;;;;10.10;99.90;;;;;;5085875;28;19931;-76
2022/03/14 09:06:50;;;;;;;;;;;10.10;99.90;;;;;;5058347;28;19936;-76
2022/03/14 09:09:18;;;;;;;;;;;10.10;99.90;;;;;;5067417;28;19925;-76
2022/03/14 09:11:46;;;;;;;;;;;10.20;99.90;;;;;;5073336;28;19931;-76
2022/03/14 09:14:13;;;;;;;;;;;10.30;99.90;;;;;;5071510;28;19925;-76
2022/03/14 09:16:40;;;;;;;;;;;10.50;99.90;;;;;;5071788;28;19963;-76
2022/03/14 09:19:07;;;;;;;;;;;10.70;99.90;;;;;;5070956;28;19924;-76
2022/03/14 09:21:34;;;;;;;;;;;10.80;99.90;;;;;;5070897;28;20002;-76
2022/03/14 09:24:02;;;;;;;;;;;10.90;99.90;;;;;;5071517;28;19932;-77
2022/03/14 09:26:30;;;;;;;;;;;11.00;99.90;;;;;;5072140;28;19924;-76
2022/03/14 09:28:58;;;;;;;;;;;11.20;99.90;;;;;;5071234;28;19924;-76
2022/03/14 09:31:25;;;;;;;;;;;11.40;99.90;;;;;;5071532;28;19932;-77
2022/03/14 09:33:52;;;;;;;;;;;11.40;99.90;;;;;;5071166;28;19925;-76
2022/03/14 09:36:19;;;;;;;;;;;11.30;99.90;;;;;;5071004;28;19929;-76
2022/03/14 09:38:45;;;;;;;;;;;11.30;99.90;;;;;;5066266;28;19924;-76
2022/03/14 09:41:13;;;;;;;;;;;11.20;99.90;;;;;;5071819;28;20407;-76
2022/03/14 09:43:45;;;;;;;;;;;11.30;99.90;;;;;;5070941;28;20404;-76
2022/03/14 09:46:14;;;;;;;;;;;11.50;99.90;;;;;;5066808;28;19928;-76
2022/03/14 09:48:49;;;;;;;;;;;11.60;99.90;;;;;;5050749;28;20381;-76
2022/03/14 09:51:17;;;;;;;;;;;11.60;99.90;;;;;;5051351;28;19924;-76
2022/03/14 09:53:45;;;;;;;;;;;11.80;99.90;;;;;;5050909;28;20016;-77
2022/03/14 09:56:14;;;;;;;;;;;12.00;99.90;;;;;;5052680;28;19925;-76
2022/03/14 09:58:44;;;;;;;;;;;12.00;99.90;;;;;;5050763;28;19935;-76
2022/03/14 10:01:10;;;;;;;;;;;11.90;99.90;;;;;;5051189;28;20330;-77
2022/03/14 10:03:39;;;;;;;;;;;11.80;99.90;;;;;;5050838;28;20388;-76
2022/03/14 10:06:06;;;;;;;;;;;11.60;99.90;;;;;;5051006;28;19924;-76
2022/03/14 10:08:32;;;;;;;;;;;11.50;99.90;;;;;;5050483;28;20322;-76
2022/03/14 10:10:59;;;;;;;;;;;11.40;99.90;;;;;;5050443;28;19925;-76
2022/03/14 10:13:26;;;;;;;;;;;11.30;99.90;;;;;;5050597;28;19925;-76
2022/03/14 10:15:53;;;;;;;;;;;11.20;99.90;;;;;;5050871;28;19925;-76
2022/03/14 10:18:20;;;;;;;;;;;11.20;99.90;;;;;;5050306;28;20019;-77
2022/03/14 10:20:56;;;;;;;;;;;11.10;99.90;;;;;;5050393;28;19947;-76
2022/03/14 10:23:31;;;;;;;;;;;11.10;99.90;;;;;;5050397;28;19925;-76
2022/03/14 10:26:00;;;;;;;;;;;11.10;99.90;;;;;;5054872;28;19928;-75
2022/03/14 10:28:30;;;;;;;;;;;11.40;99.90;;;;;;5074260;28;20024;-75
2022/03/14 10:31:00;;;;;;;;;;;11.40;99.90;;;;;;5061831;28;20019;-77
2022/03/14 10:33:28;;;;;;;;;;;11.50;99.90;;;;;;5060674;28;19925;-76
2022/03/14 10:35:57;;;;;;;;;;;11.70;99.90;;;;;;5065152;28;19975;-77
2022/03/14 10:38:26;;;;;;;;;;;11.90;99.90;;;;;;5058555;28;20420;-76
2022/03/14 10:40:54;;;;;;;;;;;11.90;99.90;;;;;;5070372;28;19944;-77
2022/03/14 10:43:22;;;;;;;;;;;11.80;99.90;;;;;;5073375;28;19925;-76
2022/03/14 10:45:49;;;;;;;;;;;11.80;99.90;;;;;;5068573;28;20451;-75
2022/03/14 10:48:16;;;;;;;;;;;11.90;99.90;;;;;;5066730;28;19924;-76
2022/03/14 10:50:43;;;;;;;;;;;12.00;99.90;;;;;;5068389;28;19975;-76
2022/03/14 10:53:12;;;;;;;;;;;12.00;99.90;;;;;;5064659;28;20277;-77
2022/03/14 10:55:40;;;;;;;;;;;11.90;99.90;;;;;;5087636;28;20441;-75
2022/03/14 10:58:12;;;;;;;;;;;12.00;99.90;;;;;;5087492;28;20335;-76
2022/03/14 11:00:52;;;;;;;;;;;12.00;99.90;;;;;;5087235;28;19925;-76
2022/03/14 11:03:22;;;;;;;;;;;11.90;99.90;;;;;;5087094;28;20273;-76
2022/03/14 11:05:49;;;;;;;;;;;11.80;99.90;;;;;;5083625;28;20015;-76
2022/03/14 11:08:27;;;;;;;;;;;11.80;99.90;;;;;;5053268;28;20343;-77
2022/03/14 11:10:54;;;;;;;;;;;11.80;99.90;;;;;;5053404;28;19951;-76
2022/03/14 11:13:21;;;;;;;;;;;11.90;99.90;;;;;;5061545;28;19928;-75
2022/03/14 11:15:48;;;;;;;;;;;11.90;99.90;;;;;;5082425;28;19925;-77
2022/03/14 11:18:15;;;;;;;;;;;11.80;99.90;;;;;;5058993;28;19931;-76
2022/03/14 11:20:42;;;;;;;;;;;11.70;99.90;;;;;;5052099;28;20355;-77
2022/03/14 11:23:10;;;;;;;;;;;11.60;99.90;;;;;;5052738;28;19933;-77
2022/03/14 11:25:38;;;;;;;;;;;11.60;99.90;;;;;;5052493;28;19925;-77
2022/03/14 11:28:06;;;;;;;;;;;11.60;99.90;;;;;;5052216;28;19933;-78
2022/03/14 11:30:34;;;;;;;;;;;11.70;99.90;;;;;;5051744;28;19924;-78
2022/03/14 11:33:03;;;;;;;;;;;11.80;99.90;;;;;;5052342;28;19929;-78
2022/03/14 11:35:30;;;;;;;;;;;11.90;99.90;;;;;;5069845;28;19925;-76
2022/03/14 11:37:57;;;;;;;;;;;11.90;99.90;;;;;;5058073;28;19931;-76
2022/03/14 11:40:24;;;;;;;;;;;12.00;99.90;;;;;;5068658;28;19924;-75
2022/03/14 11:42:53;;;;;;;;;;;11.90;99.90;;;;;;5069286;28;19935;-77
2022/03/14 11:45:20;;;;;;;;;;;12.00;99.90;;;;;;5069875;28;19925;-77
2022/03/14 11:47:47;;;;;;;;;;;12.10;99.90;;;;;;5086218;28;19924;-77
2022/03/14 11:50:15;;;;;;;;;;;12.90;99.90;;;;;;5064869;28;19925;-76
2022/03/14 11:52:42;;;;;;;;;;;13.50;99.90;;;;;;5067236;28;20166;-77
2022/03/14 11:55:16;;;;;;;;;;;13.30;99.90;;;;;;5065689;28;19925;-77
2022/03/14 11:57:44;;;;;;;;;;;13.90;99.90;;;;;;5062143;28;19925;-78
2022/03/14 12:00:32;;;;;;;;;;;15.20;99.90;;;;;;5071610;28;19930;-76
2022/03/14 12:03:01;;;;;;;;;;;17.60;99.90;;;;;;5068853;28;19925;-77
2022/03/14 12:05:43;;;;;;;;;;;20.10;99.90;;;;;;5064915;28;19924;-76
2022/03/14 12:08:33;;;;;;;;;;;19.80;99.90;;;;;;5056167;28;19924;-75
2022/03/14 12:11:14;;;;;;;;;;;17.90;99.90;;;;;;5058882;28;19960;-78
2022/03/14 12:13:42;;;;;;;;;;;16.10;99.90;;;;;;5071291;28;19964;-76
2022/03/14 12:16:34;;;;;;;;;;;15.50;99.90;;;;;;5060068;28;20055;-77
2022/03/14 12:19:23;;;;;;;;;;;14.50;99.90;;;;;;5071354;28;19932;-77
2022/03/14 12:21:52;;;;;;;;;;;13.90;99.90;;;;;;5071773;28;19924;-77
2022/03/14 12:24:20;;;;;;;;;;;13.30;99.90;;;;;;5069494;28;19925;-76
2022/03/14 12:26:47;;;;;;;;;;;12.90;99.90;;;;;;5067026;28;19968;-78
2022/03/14 12:29:35;;;;;;;;;;;12.70;99.90;;;;;;5064771;28;19928;-77
2022/03/14 12:32:21;;;;;;;;;;;12.70;99.90;;;;;;5054359;28;20308;-78
2022/03/14 12:34:57;;;;;;;;;;;12.70;99.90;;;;;;5054559;28;20008;-79
2022/03/14 12:37:24;;;;;;;;;;;12.70;99.90;;;;;;5071302;28;19924;-79
2022/03/14 12:39:51;;;;;;;;;;;12.50;99.90;;;;;;5053046;28;19978;-80
2022/03/14 12:42:22;;;;;;;;;;;12.60;99.90;;;;;;5069767;28;19924;-79
2022/03/14 12:45:04;;;;;;;;;;;12.60;99.90;;;;;;5053339;28;19925;-78
2022/03/14 12:47:31;;;;;;;;;;;12.50;99.90;;;;;;5053480;28;19925;-79
2022/03/14 12:49:59;;;;;;;;;;;12.50;99.90;;;;;;5053055;28;19928;-78
2022/03/14 12:52:26;;;;;;;;;;;12.40;99.90;;;;;;5054113;28;19931;-79
2022/03/14 12:54:53;;;;;;;;;;;12.50;99.90;;;;;;5053515;28;19929;-79
2022/03/14 12:57:23;;;;;;;;;;;12.50;99.90;;;;;;5053420;28;19925;-77
2022/03/14 12:59:58;;;;;;;;;;;12.60;99.90;;;;;;5053250;28;19925;-79
2022/03/14 13:02:27;;;;;;;;;;;12.80;99.90;;;;;;5077829;23;19932;-76
2022/03/14 13:04:54;;;;;;;;;;;13.00;99.90;;;;;;5068891;28;19924;-78
2022/03/14 13:07:22;;;;;;;;;;;13.30;99.90;;;;;;5087072;28;19924;-77
2022/03/14 13:09:54;;;;;;;;;;;14.10;99.90;;;;;;5069877;28;19929;-78
2022/03/14 13:12:20;;;;;;;;;;;15.70;99.90;;;;;;5069648;28;20401;-76
2022/03/14 13:14:48;;;;;;;;;;;14.90;99.90;;;;;;5050421;28;19965;-78
2022/03/14 13:17:23;;;;;;;;;;;14.30;99.90;;;;;;5050085;28;20016;-77
2022/03/14 13:19:49;;;;;;;;;;;14.00;99.90;;;;;;5049980;28;19925;-77
2022/03/14 13:22:16;;;;;;;;;;;13.90;99.90;;;;;;5050664;28;19924;-77
2022/03/14 13:24:48;;;;;;;;;;;13.70;99.90;;;;;;5051477;28;19925;-78
2022/03/14 13:27:21;;;;;;;;;;;13.40;99.90;;;;;;5049788;28;20127;-77
2022/03/14 13:29:49;;;;;;;;;;;13.50;99.90;;;;;;5049644;28;19925;-78
2022/03/14 13:32:17;;;;;;;;;;;14.00;99.90;;;;;;5050259;28;20343;-78
2022/03/14 13:34:45;;;;;;;;;;;15.00;99.90;;;;;;5050083;28;19925;-76
2022/03/14 13:37:12;;;;;;;;;;;16.40;99.90;;;;;;5050300;28;19925;-79
2022/03/14 13:39:41;;;;;;;;;;;17.50;99.90;;;;;;5049440;28;19932;-78
2022/03/14 13:42:09;;;;;;;;;;;17.40;99.90;;;;;;5049765;28;20358;-78
2022/03/14 13:44:38;;;;;;;;;;;16.20;99.90;;;;;;5049854;28;19982;-78
2022/03/14 13:47:05;;;;;;;;;;;15.20;99.90;;;;;;5049990;28;19925;-77
2022/03/14 13:49:32;;;;;;;;;;;14.90;99.90;;;;;;5049458;28;19925;-77
2022/03/14 13:52:00;;;;;;;;;;;14.20;99.90;;;;;;5049921;28;19924;-78
2022/03/14 13:54:27;;;;;;;;;;;13.70;99.90;;;;;;5049488;28;19925;-79
2022/03/14 13:56:55;;;;;;;;;;;13.60;99.90;;;;;;5049879;28;20395;-78
2022/03/14 13:59:30;;;;;;;;;;;13.40;99.90;;;;;;5049517;28;19946;-77
2022/03/14 14:01:57;;;;;;;;;;;13.30;99.90;;;;;;5049941;28;19925;-79
2022/03/14 14:04:25;;;;;;;;;;;13.20;99.90;;;;;;5049619;28;19925;-77
2022/03/14 14:06:52;;;;;;;;;;;13.20;99.90;;;;;;5049684;28;20392;-78
2022/03/14 14:09:21;;;;;;;;;;;13.00;99.90;;;;;;5051907;28;19931;-77
2022/03/14 14:12:01;;;;;;;;;;;12.90;99.90;;;;;;5053927;28;20027;-77
2022/03/14 14:14:31;;;;;;;;;;;12.70;99.90;;;;;;5053592;28;19931;-74
2022/03/14 14:17:14;;;;;;;;;;;12.70;99.90;;;;;;5087324;28;19932;-79
2022/03/14 14:20:00;;;;;;;;;;;12.70;99.90;;;;;;5086772;28;19925;-77
2022/03/14 14:22:28;;;;;;;;;;;12.80;99.90;;;;;;5053816;28;19952;-77
2022/03/14 14:24:55;;;;;;;;;;;12.90;99.90;;;;;;5053453;28;19929;-77
2022/03/14 14:27:26;;;;;;;;;;;12.90;99.90;;;;;;5047149;28;19935;-78
2022/03/14 14:29:55;;;;;;;;;;;13.20;99.90;;;;;;5047425;28;20331;-77